createdAt,value
2023-05-07T00:00:40.217Z,1018.49
2023-05-07T00:01:40.203Z,1018.55
2023-05-07T00:02:40.271Z,1018.52
2023-05-07T00:03:40.362Z,1018.54
2023-05-07T00:04:40.318Z,1018.53
2023-05-07T00:05:40.177Z,1018.49
2023-05-07T00:06:40.144Z,1018.50
2023-05-07T00:07:40.140Z,1018.51
2023-05-07T00:08:40.128Z,1018.47
2023-05-07T00:09:40.130Z,1018.47
2023-05-07T00:10:40.227Z,1018.54
2023-05-07T00:11:40.097Z,1018.55
2023-05-07T00:12:40.110Z,1018.53
2023-05-07T00:13:40.067Z,1018.59
2023-05-07T00:14:40.087Z,1018.51
2023-05-07T00:15:40.078Z,1018.54
2023-05-07T00:16:40.088Z,1018.52
2023-05-07T00:17:40.040Z,1018.56
2023-05-07T00:18:40.021Z,1018.56
2023-05-07T00:19:40.016Z,1018.48
2023-05-07T00:20:40.014Z,1018.48
2023-05-07T00:21:39.989Z,1018.48
2023-05-07T00:22:39.993Z,1018.46
2023-05-07T00:23:39.963Z,1018.48
2023-05-07T00:24:39.954Z,1018.44
2023-05-07T00:25:39.957Z,1018.42
2023-05-07T00:26:40.078Z,1018.45
2023-05-07T00:27:39.912Z,1018.45
2023-05-07T00:28:39.905Z,1018.47
2023-05-07T00:29:39.899Z,1018.48
2023-05-07T00:30:39.907Z,1018.49
2023-05-07T00:31:39.945Z,1018.51
2023-05-07T00:32:39.898Z,1018.55
2023-05-07T00:33:39.880Z,1018.51
2023-05-07T00:34:39.857Z,1018.50
2023-05-07T00:35:39.862Z,1018.48
2023-05-07T00:36:39.829Z,1018.46
2023-05-07T00:37:39.810Z,1018.48
2023-05-07T00:38:39.810Z,1018.48
2023-05-07T00:39:39.798Z,1018.48
2023-05-07T00:40:39.785Z,1018.48
2023-05-07T00:41:39.786Z,1018.51
2023-05-07T00:42:39.778Z,1018.49
2023-05-07T00:43:39.742Z,1018.45
2023-05-07T00:44:39.735Z,1018.46
2023-05-07T00:45:39.813Z,1018.44
2023-05-07T00:46:39.731Z,1018.47
2023-05-07T00:47:39.762Z,1018.46
2023-05-07T00:48:39.707Z,1018.46
2023-05-07T00:49:39.682Z,1018.42
2023-05-07T00:50:39.675Z,1018.52
2023-05-07T00:51:39.658Z,1018.48
2023-05-07T00:52:39.671Z,1018.50
2023-05-07T00:53:39.644Z,1018.50
2023-05-07T00:54:39.629Z,1018.50
2023-05-07T00:55:39.636Z,1018.48
2023-05-07T00:56:39.611Z,1018.48
2023-05-07T00:57:39.622Z,1018.42
2023-05-07T00:58:39.717Z,1018.41
2023-05-07T00:59:39.582Z,1018.40
2023-05-07T01:00:39.559Z,1018.47
2023-05-07T01:01:39.611Z,1018.48
2023-05-07T01:02:39.582Z,1018.47
2023-05-07T01:03:39.552Z,1018.53
2023-05-07T01:04:39.565Z,1018.54
2023-05-07T01:05:39.509Z,1018.48
2023-05-07T01:06:39.501Z,1018.53
2023-05-07T01:07:39.504Z,1018.52
2023-05-07T01:08:39.502Z,1018.44
2023-05-07T01:09:39.500Z,1018.49
2023-05-07T01:10:39.461Z,1018.44
2023-05-07T01:11:39.438Z,1018.45
2023-05-07T01:12:39.478Z,1018.40
2023-05-07T01:13:39.420Z,1018.39
2023-05-07T01:14:39.460Z,1018.43
2023-05-07T01:15:39.406Z,1018.38
2023-05-07T01:16:39.440Z,1018.33
2023-05-07T01:17:39.493Z,1018.41
2023-05-07T01:18:39.376Z,1018.44
2023-05-07T01:19:39.388Z,1018.44
2023-05-07T01:20:39.350Z,1018.40
2023-05-07T01:21:39.333Z,1018.42
2023-05-07T01:22:39.332Z,1018.47
2023-05-07T01:23:39.316Z,1018.53
2023-05-07T01:24:39.339Z,1018.54
2023-05-07T01:25:39.295Z,1018.63
2023-05-07T01:26:39.296Z,1018.61
2023-05-07T01:27:39.280Z,1018.63
2023-05-07T01:28:39.274Z,1018.61
2023-05-07T01:29:39.276Z,1018.62
2023-05-07T01:30:39.338Z,1018.61
2023-05-07T01:31:39.316Z,1018.63
2023-05-07T01:32:39.264Z,1018.62
2023-05-07T01:33:39.213Z,1018.63
2023-05-07T01:34:39.233Z,1018.59
2023-05-07T01:35:39.196Z,1018.55
2023-05-07T01:36:39.242Z,1018.68
2023-05-07T01:37:39.224Z,1018.55
2023-05-07T01:38:39.164Z,1018.57
2023-05-07T01:39:39.166Z,1018.56
2023-05-07T01:40:39.136Z,1018.61
2023-05-07T01:41:39.125Z,1018.64
2023-05-07T01:42:39.130Z,1018.61
2023-05-07T01:43:39.120Z,1018.64
2023-05-07T01:44:39.146Z,1018.68
2023-05-07T01:45:39.118Z,1018.68
2023-05-07T01:46:39.241Z,1018.59
2023-05-07T01:47:39.099Z,1018.70
2023-05-07T01:48:39.051Z,1018.66
2023-05-07T01:49:39.039Z,1018.64
2023-05-07T01:50:39.051Z,1018.62
2023-05-07T01:51:39.007Z,1018.69
2023-05-07T01:52:39.001Z,1018.64
2023-05-07T01:53:38.984Z,1018.70
2023-05-07T01:54:38.980Z,1018.65
2023-05-07T01:55:39.000Z,1018.68
2023-05-07T01:56:38.961Z,1018.72
2023-05-07T01:57:38.953Z,1018.65
2023-05-07T01:58:38.947Z,1018.67
2023-05-07T01:59:38.926Z,1018.73
2023-05-07T02:00:38.936Z,1018.71
2023-05-07T02:01:38.957Z,1018.69
2023-05-07T02:02:39.167Z,1018.70
2023-05-07T02:03:39.025Z,1018.66
2023-05-07T02:04:38.892Z,1018.67
2023-05-07T02:05:38.880Z,1018.61
2023-05-07T02:06:38.849Z,1018.64
2023-05-07T02:07:38.834Z,1018.63
2023-05-07T02:08:38.831Z,1018.60
2023-05-07T02:09:38.817Z,1018.60
2023-05-07T02:10:38.830Z,1018.70
2023-05-07T02:11:38.789Z,1018.68
2023-05-07T02:12:38.827Z,1018.66
2023-05-07T02:13:38.773Z,1018.67
2023-05-07T02:14:38.774Z,1018.73
2023-05-07T02:15:38.776Z,1018.77
2023-05-07T02:16:38.808Z,1018.72
2023-05-07T02:17:38.851Z,1018.76
2023-05-07T02:18:38.813Z,1018.78
2023-05-07T02:19:38.708Z,1018.73
2023-05-07T02:20:38.734Z,1018.70
2023-05-07T02:21:38.729Z,1018.76
2023-05-07T02:22:38.683Z,1018.78
2023-05-07T02:23:38.673Z,1018.77
2023-05-07T02:24:38.663Z,1018.75
2023-05-07T02:25:38.653Z,1018.78
2023-05-07T02:26:38.676Z,1018.79
2023-05-07T02:27:38.624Z,1018.74
2023-05-07T02:28:38.625Z,1018.84
2023-05-07T02:29:38.603Z,1018.80
2023-05-07T02:30:38.627Z,1018.85
2023-05-07T02:31:38.667Z,1018.84
2023-05-07T02:32:38.616Z,1018.91
2023-05-07T02:33:38.596Z,1018.85
2023-05-07T02:34:38.645Z,1018.84
2023-05-07T02:35:38.545Z,1018.81
2023-05-07T02:36:38.562Z,1018.84
2023-05-07T02:37:38.554Z,1018.86
2023-05-07T02:38:38.513Z,1018.82
2023-05-07T02:39:38.496Z,1018.81
2023-05-07T02:40:38.495Z,1018.82
2023-05-07T02:41:38.498Z,1018.82
2023-05-07T02:42:38.468Z,1018.90
2023-05-07T02:43:38.460Z,1018.87
2023-05-07T02:44:38.447Z,1018.88
2023-05-07T02:45:38.531Z,1018.92
2023-05-07T02:46:38.449Z,1018.90
2023-05-07T02:47:38.444Z,1018.92
2023-05-07T02:48:38.401Z,1018.89
2023-05-07T02:49:38.389Z,1018.89
2023-05-07T02:50:38.404Z,1018.90
2023-05-07T02:51:38.399Z,1018.89
2023-05-07T02:52:38.358Z,1018.89
2023-05-07T02:53:38.342Z,1018.92
2023-05-07T02:54:38.337Z,1018.95
2023-05-07T02:55:38.321Z,1018.93
2023-05-07T02:56:38.331Z,1018.95
2023-05-07T02:57:38.334Z,1019.04
2023-05-07T02:58:38.296Z,1019.01
2023-05-07T02:59:38.282Z,1019.00
2023-05-07T03:00:38.269Z,1019.10
2023-05-07T03:01:38.302Z,1018.98
2023-05-07T03:02:38.314Z,1019.03
2023-05-07T03:03:38.299Z,1018.99
2023-05-07T03:04:38.283Z,1019.03
2023-05-07T03:05:38.231Z,1019.02
2023-05-07T03:06:38.302Z,1019.01
2023-05-07T03:07:38.220Z,1019.03
2023-05-07T03:08:38.186Z,1019.03
2023-05-07T03:09:38.175Z,1019.00
2023-05-07T03:10:38.167Z,1018.99
2023-05-07T03:11:38.151Z,1019.04
2023-05-07T03:12:38.173Z,1019.04
2023-05-07T03:13:38.132Z,1019.05
2023-05-07T03:14:38.142Z,1019.08
2023-05-07T03:15:38.189Z,1019.05
2023-05-07T03:16:38.099Z,1019.02
2023-05-07T03:17:38.150Z,1019.06
2023-05-07T03:18:38.127Z,1019.09
2023-05-07T03:19:38.084Z,1019.08
2023-05-07T03:20:38.199Z,1019.05
2023-05-07T03:21:38.035Z,1019.09
2023-05-07T03:22:38.130Z,1019.01
2023-05-07T03:23:38.023Z,1019.00
2023-05-07T03:24:38.034Z,1019.02
2023-05-07T03:25:38.012Z,1019.08
2023-05-07T03:26:37.980Z,1019.09
2023-05-07T03:27:37.983Z,1019.06
2023-05-07T03:28:37.964Z,1019.09
2023-05-07T03:29:37.976Z,1019.11
2023-05-07T03:30:37.968Z,1019.12
2023-05-07T03:31:38.066Z,1019.13
2023-05-07T03:32:37.994Z,1019.16
2023-05-07T03:33:37.905Z,1019.12
2023-05-07T03:34:37.907Z,1019.16
2023-05-07T03:35:37.898Z,1019.15
2023-05-07T03:36:37.877Z,1019.16
2023-05-07T03:37:37.885Z,1019.11
2023-05-07T03:38:38.061Z,1019.15
2023-05-07T03:39:37.845Z,1019.18
2023-05-07T03:40:37.831Z,1019.14
2023-05-07T03:41:37.818Z,1019.12
2023-05-07T03:42:37.846Z,1019.16
2023-05-07T03:43:37.800Z,1019.14
2023-05-07T03:44:37.786Z,1019.12
2023-05-07T03:45:37.775Z,1019.15
2023-05-07T03:46:37.795Z,1019.19
2023-05-07T03:47:37.805Z,1019.21
2023-05-07T03:48:37.785Z,1019.15
2023-05-07T03:49:37.750Z,1019.14
2023-05-07T03:50:39.022Z,1019.23
2023-05-07T03:51:37.711Z,1019.18
2023-05-07T03:52:37.706Z,1019.19
2023-05-07T03:53:37.714Z,1019.25
2023-05-07T03:54:37.777Z,1019.22
2023-05-07T03:55:37.673Z,1019.27
2023-05-07T03:56:37.659Z,1019.28
2023-05-07T03:57:37.648Z,1019.28
2023-05-07T03:58:37.660Z,1019.29
2023-05-07T03:59:37.657Z,1019.28
2023-05-07T04:00:37.618Z,1019.29
2023-05-07T04:01:37.644Z,1019.30
2023-05-07T04:02:37.864Z,1019.27
2023-05-07T04:03:37.831Z,1019.31
2023-05-07T04:04:37.604Z,1019.35
2023-05-07T04:05:37.583Z,1019.35
2023-05-07T04:06:37.554Z,1019.34
2023-05-07T04:07:37.539Z,1019.34
2023-05-07T04:08:37.553Z,1019.36
2023-05-07T04:09:37.554Z,1019.28
2023-05-07T04:10:37.552Z,1019.29
2023-05-07T04:11:37.513Z,1019.31
2023-05-07T04:12:37.506Z,1019.32
2023-05-07T04:13:37.474Z,1019.29
2023-05-07T04:14:37.475Z,1019.28
2023-05-07T04:15:37.530Z,1019.30
2023-05-07T04:16:37.480Z,1019.33
2023-05-07T04:17:37.470Z,1019.29
2023-05-07T04:18:37.449Z,1019.37
2023-05-07T04:19:37.417Z,1019.37
2023-05-07T04:20:37.416Z,1019.34
2023-05-07T04:21:37.391Z,1019.38
2023-05-07T04:22:37.374Z,1019.31
2023-05-07T04:23:37.380Z,1019.36
2023-05-07T04:24:37.358Z,1019.34
2023-05-07T04:25:37.380Z,1019.37
2023-05-07T04:26:37.476Z,1019.38
2023-05-07T04:27:37.329Z,1019.41
2023-05-07T04:28:37.315Z,1019.43
2023-05-07T04:29:37.308Z,1019.46
2023-05-07T04:30:37.288Z,1019.41
2023-05-07T04:31:37.354Z,1019.41
2023-05-07T04:32:37.301Z,1019.45
2023-05-07T04:33:37.261Z,1019.45
2023-05-07T04:34:37.249Z,1019.45
2023-05-07T04:35:37.245Z,1019.47
2023-05-07T04:36:37.234Z,1019.45
2023-05-07T04:37:37.214Z,1019.46
2023-05-07T04:38:37.217Z,1019.46
2023-05-07T04:39:37.214Z,1019.52
2023-05-07T04:40:37.178Z,1019.45
2023-05-07T04:41:37.193Z,1019.48
2023-05-07T04:42:37.248Z,1019.49
2023-05-07T04:43:37.147Z,1019.54
2023-05-07T04:44:37.154Z,1019.52
2023-05-07T04:45:37.141Z,1019.58
2023-05-07T04:46:37.198Z,1019.57
2023-05-07T04:47:37.143Z,1019.56
2023-05-07T04:48:37.088Z,1019.62
2023-05-07T04:49:37.107Z,1019.56
2023-05-07T04:50:37.066Z,1019.60
2023-05-07T04:51:37.089Z,1019.69
2023-05-07T04:52:37.047Z,1019.63
2023-05-07T04:53:37.059Z,1019.64
2023-05-07T04:54:37.021Z,1019.59
2023-05-07T04:55:37.019Z,1019.64
2023-05-07T04:56:37.018Z,1019.66
2023-05-07T04:57:36.997Z,1019.65
2023-05-07T04:58:37.027Z,1019.66
2023-05-07T04:59:36.982Z,1019.64
2023-05-07T05:00:36.962Z,1019.66
2023-05-07T05:01:37.019Z,1019.61
2023-05-07T05:02:36.943Z,1019.63
2023-05-07T05:03:37.182Z,1019.60
2023-05-07T05:04:36.915Z,1019.67
2023-05-07T05:05:36.910Z,1019.65
2023-05-07T05:06:36.916Z,1019.70
2023-05-07T05:07:36.902Z,1019.72
2023-05-07T05:08:36.877Z,1019.66
2023-05-07T05:09:36.876Z,1019.73
2023-05-07T05:10:36.856Z,1019.71
2023-05-07T05:11:36.866Z,1019.75
2023-05-07T05:12:36.852Z,1019.74
2023-05-07T05:13:36.823Z,1019.77
2023-05-07T05:14:36.838Z,1019.76
2023-05-07T05:15:36.807Z,1019.76
2023-05-07T05:16:36.938Z,1019.79
2023-05-07T05:17:36.820Z,1019.72
2023-05-07T05:18:36.785Z,1019.79
2023-05-07T05:19:36.758Z,1019.76
2023-05-07T05:20:36.750Z,1019.73
2023-05-07T05:21:36.757Z,1019.77
2023-05-07T05:22:36.718Z,1019.82
2023-05-07T05:23:36.711Z,1019.79
2023-05-07T05:24:36.695Z,1019.76
2023-05-07T05:25:36.694Z,1019.77
2023-05-07T05:26:36.703Z,1019.81
2023-05-07T05:27:36.687Z,1019.75
2023-05-07T05:28:36.660Z,1019.77
2023-05-07T05:29:36.649Z,1019.81
2023-05-07T05:30:36.764Z,1019.78
2023-05-07T05:31:36.688Z,1019.82
2023-05-07T05:32:36.651Z,1019.75
2023-05-07T05:33:36.601Z,1019.75
2023-05-07T05:34:36.619Z,1019.76
2023-05-07T05:35:36.603Z,1019.75
2023-05-07T05:36:36.570Z,1019.75
2023-05-07T05:37:36.558Z,1019.74
2023-05-07T05:38:36.575Z,1019.75
2023-05-07T05:39:36.544Z,1019.70
2023-05-07T05:40:36.561Z,1019.74
2023-05-07T05:41:36.550Z,1019.72
2023-05-07T05:42:36.535Z,1019.72
2023-05-07T05:43:36.521Z,1019.70
2023-05-07T05:44:36.487Z,1019.75
2023-05-07T05:45:36.521Z,1019.76
2023-05-07T05:46:37.300Z,1019.73
2023-05-07T05:47:36.542Z,1019.78
2023-05-07T05:48:36.453Z,1019.71
2023-05-07T05:49:36.443Z,1019.74
2023-05-07T05:50:36.468Z,1019.71
2023-05-07T05:51:36.413Z,1019.71
2023-05-07T05:52:36.404Z,1019.67
2023-05-07T05:53:36.395Z,1019.74
2023-05-07T05:54:36.369Z,1019.76
2023-05-07T05:55:36.408Z,1019.77
2023-05-07T05:56:36.374Z,1019.74
2023-05-07T05:57:36.350Z,1019.87
2023-05-07T05:58:36.357Z,1019.84
2023-05-07T05:59:36.319Z,1019.86
2023-05-07T06:00:36.308Z,1019.86
2023-05-07T06:01:36.417Z,1019.91
2023-05-07T06:02:36.488Z,1019.89
2023-05-07T06:03:36.282Z,1019.91
2023-05-07T06:04:36.301Z,1019.91
2023-05-07T06:05:36.258Z,1019.94
2023-05-07T06:06:36.269Z,1019.92
2023-05-07T06:07:36.232Z,1019.98
2023-05-07T06:08:36.226Z,1020.01
2023-05-07T06:09:36.209Z,1019.99
2023-05-07T06:10:36.201Z,1019.98
2023-05-07T06:11:36.224Z,1019.95
2023-05-07T06:12:36.218Z,1020.04
2023-05-07T06:13:36.180Z,1019.98
2023-05-07T06:14:36.155Z,1020.00
2023-05-07T06:15:36.146Z,1019.92
2023-05-07T06:16:36.178Z,1020.04
2023-05-07T06:17:36.198Z,1019.99
2023-05-07T06:18:36.213Z,1020.02
2023-05-07T06:19:36.108Z,1020.06
2023-05-07T06:20:36.117Z,1020.01
2023-05-07T06:21:36.081Z,1020.00
2023-05-07T06:22:36.098Z,1019.98
2023-05-07T06:23:36.079Z,1019.98
2023-05-07T06:24:36.051Z,1020.00
2023-05-07T06:25:36.070Z,1019.99
2023-05-07T06:26:36.025Z,1020.00
2023-05-07T06:27:36.019Z,1020.02
2023-05-07T06:28:36.011Z,1019.97
2023-05-07T06:29:36.023Z,1020.03
2023-05-07T06:30:36.008Z,1020.07
2023-05-07T06:31:35.984Z,1020.07
2023-05-07T06:32:35.984Z,1020.08
2023-05-07T06:33:36.409Z,1020.06
2023-05-07T06:34:36.066Z,1020.08
2023-05-07T06:35:35.938Z,1020.09
2023-05-07T06:36:35.920Z,1020.12
2023-05-07T06:37:35.925Z,1020.05
2023-05-07T06:38:35.909Z,1020.12
2023-05-07T06:39:35.917Z,1020.05
2023-05-07T06:40:35.877Z,1020.16
2023-05-07T06:41:35.894Z,1020.23
2023-05-07T06:42:35.850Z,1020.18
2023-05-07T06:43:35.856Z,1020.19
2023-05-07T06:44:35.836Z,1020.25
2023-05-07T06:45:35.825Z,1020.24
2023-05-07T06:46:35.863Z,1020.26
2023-05-07T06:47:35.849Z,1020.27
2023-05-07T06:48:35.788Z,1020.33
2023-05-07T06:49:35.785Z,1020.24
2023-05-07T06:50:35.892Z,1020.26
2023-05-07T06:51:35.757Z,1020.34
2023-05-07T06:52:35.761Z,1020.34
2023-05-07T06:53:35.737Z,1020.25
2023-05-07T06:54:35.760Z,1020.27
2023-05-07T06:55:35.717Z,1020.30
2023-05-07T06:56:35.721Z,1020.28
2023-05-07T06:57:35.698Z,1020.29
2023-05-07T06:58:35.697Z,1020.33
2023-05-07T06:59:35.684Z,1020.41
2023-05-07T07:00:35.655Z,1020.37
2023-05-07T07:01:35.696Z,1020.33
2023-05-07T07:02:35.647Z,1020.37
2023-05-07T07:03:35.628Z,1020.32
2023-05-07T07:04:35.644Z,1020.36
2023-05-07T07:05:35.607Z,1020.38
2023-05-07T07:06:35.642Z,1020.37
2023-05-07T07:07:35.589Z,1020.41
2023-05-07T07:08:35.576Z,1020.46
2023-05-07T07:09:35.588Z,1020.43
2023-05-07T07:10:35.543Z,1020.39
2023-05-07T07:11:35.555Z,1020.45
2023-05-07T07:12:35.560Z,1020.41
2023-05-07T07:13:35.521Z,1020.42
2023-05-07T07:14:35.505Z,1020.43
2023-05-07T07:15:35.496Z,1020.39
2023-05-07T07:16:35.622Z,1020.34
2023-05-07T07:17:35.545Z,1020.42
2023-05-07T07:18:35.462Z,1020.38
2023-05-07T07:19:35.472Z,1020.42
2023-05-07T07:20:35.441Z,1020.32
2023-05-07T07:21:35.451Z,1020.37
2023-05-07T07:22:35.516Z,1020.33
2023-05-07T07:23:35.410Z,1020.43
2023-05-07T07:24:35.392Z,1020.37
2023-05-07T07:25:35.396Z,1020.34
2023-05-07T07:26:35.404Z,1020.41
2023-05-07T07:27:35.386Z,1020.41
2023-05-07T07:28:35.352Z,1020.43
2023-05-07T07:29:35.344Z,1020.44
2023-05-07T07:30:35.341Z,1020.43
2023-05-07T07:31:35.397Z,1020.43
2023-05-07T07:32:35.383Z,1020.48
2023-05-07T07:33:35.328Z,1020.47
2023-05-07T07:34:35.288Z,1020.44
2023-05-07T07:35:35.275Z,1020.47
2023-05-07T07:36:45.582Z,1020.43
2023-05-07T07:37:36.262Z,1020.39
2023-05-07T07:38:35.448Z,1020.43
2023-05-07T07:39:35.237Z,1020.37
2023-05-07T07:40:35.331Z,1020.40
2023-05-07T07:41:35.213Z,1020.39
2023-05-07T07:42:35.220Z,1020.37
2023-05-07T07:43:35.214Z,1020.39
2023-05-07T07:44:35.177Z,1020.33
2023-05-07T07:45:35.173Z,1020.36
2023-05-07T07:46:35.208Z,1020.29
2023-05-07T07:47:35.155Z,1020.33
2023-05-07T07:48:35.159Z,1020.27
2023-05-07T07:49:35.128Z,1020.30
2023-05-07T07:50:44.426Z,1020.28
2023-05-07T07:51:35.124Z,1020.34
2023-05-07T07:52:35.085Z,1020.24
2023-05-07T07:53:35.088Z,1020.28
2023-05-07T07:54:35.093Z,1020.27
2023-05-07T07:55:35.088Z,1020.24
2023-05-07T07:56:35.052Z,1020.27
2023-05-07T07:57:35.059Z,1020.25
2023-05-07T07:58:35.029Z,1020.29
2023-05-07T07:59:35.023Z,1020.31
2023-05-07T08:00:35.005Z,1020.29
2023-05-07T08:01:34.990Z,1020.29
2023-05-07T08:02:35.098Z,1020.26
2023-05-07T08:03:35.029Z,1020.30
2023-05-07T08:04:35.014Z,1020.33
2023-05-07T08:05:34.972Z,1020.32
2023-05-07T08:06:34.960Z,1020.29
2023-05-07T08:07:34.931Z,1020.35
2023-05-07T08:08:34.932Z,1020.35
2023-05-07T08:09:34.914Z,1020.33
2023-05-07T08:10:35.344Z,1020.42
2023-05-07T08:11:34.888Z,1020.32
2023-05-07T08:12:35.015Z,1020.30
2023-05-07T08:13:34.906Z,1020.31
2023-05-07T08:14:34.869Z,1020.32
2023-05-07T08:15:34.849Z,1020.29
2023-05-07T08:16:34.858Z,1020.34
2023-05-07T08:17:34.850Z,1020.35
2023-05-07T08:18:34.801Z,1020.35
2023-05-07T08:19:34.835Z,1020.29
2023-05-07T08:20:34.797Z,1020.26
2023-05-07T08:21:34.934Z,1020.23
2023-05-07T08:22:34.833Z,1020.30
2023-05-07T08:23:34.764Z,1020.24
2023-05-07T08:24:34.753Z,1020.32
2023-05-07T08:25:34.744Z,1020.41
2023-05-07T08:26:34.831Z,1020.39
2023-05-07T08:27:34.743Z,1020.37
2023-05-07T08:28:34.713Z,1020.41
2023-05-07T08:29:34.699Z,1020.32
2023-05-07T08:30:34.727Z,1020.28
2023-05-07T08:31:34.668Z,1020.30
2023-05-07T08:32:34.801Z,1020.29
2023-05-07T08:33:34.649Z,1020.27
2023-05-07T08:34:34.648Z,1020.36
2023-05-07T08:35:34.638Z,1020.34
2023-05-07T08:36:34.619Z,1020.31
2023-05-07T08:37:34.633Z,1020.33
2023-05-07T08:38:34.623Z,1020.35
2023-05-07T08:39:34.601Z,1020.44
2023-05-07T08:40:34.580Z,1020.37
2023-05-07T08:41:34.566Z,1020.38
2023-05-07T08:42:34.716Z,1020.34
2023-05-07T08:43:34.546Z,1020.43
2023-05-07T08:44:34.536Z,1020.42
2023-05-07T08:45:34.520Z,1020.41
2023-05-07T08:46:34.541Z,1020.47
2023-05-07T08:47:34.565Z,1020.46
2023-05-07T08:48:34.484Z,1020.44
2023-05-07T08:49:34.478Z,1020.37
2023-05-07T08:50:34.470Z,1020.43
2023-05-07T08:51:34.451Z,1020.44
2023-05-07T08:52:34.470Z,1020.40
2023-05-07T08:53:34.453Z,1020.42
2023-05-07T08:54:34.432Z,1020.43
2023-05-07T08:55:34.414Z,1020.41
2023-05-07T08:56:34.422Z,1020.45
2023-05-07T08:57:34.387Z,1020.48
2023-05-07T08:58:34.473Z,1020.48
2023-05-07T08:59:34.367Z,1020.49
2023-05-07T09:00:34.363Z,1020.52
2023-05-07T09:01:34.441Z,1020.52
2023-05-07T09:02:34.376Z,1020.57
2023-05-07T09:03:34.343Z,1020.52
2023-05-07T09:04:34.316Z,1020.53
2023-05-07T09:05:34.318Z,1020.56
2023-05-07T09:06:34.313Z,1020.57
2023-05-07T09:07:34.277Z,1020.55
2023-05-07T09:08:34.280Z,1020.61
2023-05-07T09:09:34.264Z,1020.58
2023-05-07T09:10:34.249Z,1020.58
2023-05-07T09:11:34.263Z,1020.60
2023-05-07T09:12:34.228Z,1020.50
2023-05-07T09:13:34.217Z,1020.56
2023-05-07T09:14:34.338Z,1020.63
2023-05-07T09:15:34.191Z,1020.47
2023-05-07T09:16:34.224Z,1020.57
2023-05-07T09:17:34.222Z,1020.51
2023-05-07T09:18:34.185Z,1020.53
2023-05-07T09:19:34.164Z,1020.53
2023-05-07T09:20:34.152Z,1020.57
2023-05-07T09:21:34.137Z,1020.66
2023-05-07T09:22:34.130Z,1020.63
2023-05-07T09:23:34.127Z,1020.62
2023-05-07T09:24:34.128Z,1020.58
2023-05-07T09:25:34.086Z,1020.55
2023-05-07T09:26:34.075Z,1020.57
2023-05-07T09:27:34.068Z,1020.65
2023-05-07T09:28:34.378Z,1020.62
2023-05-07T09:29:34.046Z,1020.61
2023-05-07T09:30:34.055Z,1020.61
2023-05-07T09:31:34.092Z,1020.62
2023-05-07T09:32:34.053Z,1020.67
2023-05-07T09:33:34.003Z,1020.80
2023-05-07T09:34:34.009Z,1020.66
2023-05-07T09:35:33.980Z,1020.81
2023-05-07T09:36:34.008Z,1020.73
2023-05-07T09:37:33.958Z,1020.68
2023-05-07T09:38:33.955Z,1020.64
2023-05-07T09:39:33.939Z,1020.67
2023-05-07T09:40:33.937Z,1020.58
2023-05-07T09:41:33.945Z,1020.59
2023-05-07T09:42:33.908Z,1020.66
2023-05-07T09:43:33.896Z,1020.63
2023-05-07T09:44:33.889Z,1020.60
2023-05-07T09:45:33.960Z,1020.63
2023-05-07T09:46:34.009Z,1020.65
2023-05-07T09:47:33.880Z,1020.57
2023-05-07T09:48:33.839Z,1020.53
2023-05-07T09:49:33.823Z,1020.66
2023-05-07T09:50:33.825Z,1020.62
2023-05-07T09:51:33.805Z,1020.59
2023-05-07T09:52:33.824Z,1020.57
2023-05-07T09:53:33.784Z,1020.71
2023-05-07T09:54:33.800Z,1020.59
2023-05-07T09:55:33.771Z,1020.63
2023-05-07T09:56:33.787Z,1020.62
2023-05-07T09:57:33.746Z,1020.71
2023-05-07T09:58:33.727Z,1020.67
2023-05-07T09:59:33.743Z,1020.69
2023-05-07T10:00:33.715Z,1020.66
2023-05-07T10:01:33.785Z,1020.70
2023-05-07T10:02:33.967Z,1020.70
2023-05-07T10:03:33.758Z,1020.70
2023-05-07T10:04:33.689Z,1020.71
2023-05-07T10:05:33.654Z,1020.72
2023-05-07T10:06:33.649Z,1020.74
2023-05-07T10:07:33.625Z,1020.73
2023-05-07T10:08:33.652Z,1020.71
2023-05-07T10:09:33.624Z,1020.72
2023-05-07T10:10:33.602Z,1020.71
2023-05-07T10:11:33.584Z,1020.73
2023-05-07T10:12:33.581Z,1020.70
2023-05-07T10:13:33.602Z,1020.68
2023-05-07T10:14:33.577Z,1020.70
2023-05-07T10:15:33.554Z,1020.69
2023-05-07T10:16:33.547Z,1020.67
2023-05-07T10:17:33.656Z,1020.69
2023-05-07T10:18:33.766Z,1020.71
2023-05-07T10:19:33.523Z,1020.72
2023-05-07T10:20:33.497Z,1020.70
2023-05-07T10:21:33.484Z,1020.63
2023-05-07T10:22:33.470Z,1020.71
2023-05-07T10:23:33.478Z,1020.71
2023-05-07T10:24:33.449Z,1020.71
2023-05-07T10:25:33.463Z,1020.73
2023-05-07T10:26:33.428Z,1020.68
2023-05-07T10:27:33.413Z,1020.74
2023-05-07T10:28:33.422Z,1020.76
2023-05-07T10:29:33.398Z,1020.78
2023-05-07T10:30:34.112Z,1020.75
2023-05-07T10:31:33.543Z,1020.78
2023-05-07T10:32:33.377Z,1020.75
2023-05-07T10:33:33.376Z,1020.74
2023-05-07T10:34:33.437Z,1020.71
2023-05-07T10:35:33.329Z,1020.74
2023-05-07T10:36:33.324Z,1020.73
2023-05-07T10:37:33.308Z,1020.72
2023-05-07T10:38:33.366Z,1020.77
2023-05-07T10:39:33.308Z,1020.68
2023-05-07T10:40:33.282Z,1020.69
2023-05-07T10:41:33.271Z,1020.69
2023-05-07T10:42:33.259Z,1020.64
2023-05-07T10:43:33.265Z,1020.69
2023-05-07T10:44:33.239Z,1020.70
2023-05-07T10:45:33.230Z,1020.77
2023-05-07T10:46:33.387Z,1020.73
2023-05-07T10:47:33.299Z,1020.74
2023-05-07T10:48:33.335Z,1020.71
2023-05-07T10:49:33.178Z,1020.73
2023-05-07T10:50:33.419Z,1020.71
2023-05-07T10:51:33.161Z,1020.76
2023-05-07T10:52:33.151Z,1020.67
2023-05-07T10:53:33.138Z,1020.70
2023-05-07T10:54:33.133Z,1020.63
2023-05-07T10:55:33.151Z,1020.62
2023-05-07T10:56:33.119Z,1020.69
2023-05-07T10:57:33.105Z,1020.76
2023-05-07T10:58:33.229Z,1020.75
2023-05-07T10:59:33.101Z,1020.73
2023-05-07T11:01:33.125Z,1020.68
2023-05-07T11:02:33.123Z,1020.65
2023-05-07T11:03:33.061Z,1020.72
2023-05-07T11:04:33.076Z,1020.71
2023-05-07T11:05:36.641Z,1020.62
2023-05-07T11:06:33.105Z,1020.72
2023-05-07T11:07:33.046Z,1020.73
2023-05-07T11:08:33.002Z,1020.70
2023-05-07T11:09:32.965Z,1020.66
2023-05-07T11:10:32.977Z,1020.70
2023-05-07T11:11:35.112Z,1020.72
2023-05-07T11:12:32.954Z,1020.78
2023-05-07T11:13:32.924Z,1020.73
2023-05-07T11:14:32.943Z,1020.74
2023-05-07T11:15:32.929Z,1020.74
2023-05-07T11:16:32.972Z,1020.64
2023-05-07T11:17:35.727Z,1020.71
2023-05-07T11:18:32.867Z,1020.63
2023-05-07T11:19:32.871Z,1020.68
2023-05-07T11:20:32.879Z,1020.63
2023-05-07T11:21:32.845Z,1020.71
2023-05-07T11:22:32.962Z,1020.63
2023-05-07T11:23:32.813Z,1020.64
2023-05-07T11:24:32.809Z,1020.61
2023-05-07T11:25:32.821Z,1020.65
2023-05-07T11:26:32.791Z,1020.67
2023-05-07T11:27:32.769Z,1020.65
2023-05-07T11:28:32.763Z,1020.68
2023-05-07T11:29:32.751Z,1020.69
2023-05-07T11:30:32.768Z,1020.65
2023-05-07T11:31:32.775Z,1020.67
2023-05-07T11:32:32.751Z,1020.58
2023-05-07T11:33:32.714Z,1020.63
2023-05-07T11:34:32.701Z,1020.62
2023-05-07T11:35:34.970Z,1020.66
2023-05-07T11:36:32.675Z,1020.60
2023-05-07T11:37:32.697Z,1020.53
2023-05-07T11:38:32.746Z,1020.48
2023-05-07T11:39:32.640Z,1020.47
2023-05-07T11:40:32.666Z,1020.54
2023-05-07T11:41:32.625Z,1020.46
2023-05-07T11:42:32.639Z,1020.52
2023-05-07T11:43:32.605Z,1020.57
2023-05-07T11:44:32.594Z,1020.56
2023-05-07T11:45:32.649Z,1020.60
2023-05-07T11:46:32.609Z,1020.57
2023-05-07T11:47:32.581Z,1020.50
2023-05-07T11:48:32.576Z,1020.49
2023-05-07T11:49:32.549Z,1020.56
2023-05-07T11:50:32.585Z,1020.54
2023-05-07T11:51:32.509Z,1020.48
2023-05-07T11:52:32.528Z,1020.60
2023-05-07T11:53:32.487Z,1020.58
2023-05-07T11:54:32.511Z,1020.55
2023-05-07T11:55:32.476Z,1020.56
2023-05-07T11:56:32.480Z,1020.62
2023-05-07T11:57:32.473Z,1020.56
2023-05-07T11:58:32.460Z,1020.57
2023-05-07T11:59:32.430Z,1020.60
2023-05-07T12:00:32.428Z,1020.55
2023-05-07T12:01:32.413Z,1020.53
2023-05-07T12:02:32.570Z,1020.55
2023-05-07T12:03:36.160Z,1020.56
2023-05-07T12:04:32.469Z,1020.57
2023-05-07T12:05:32.370Z,1020.63
2023-05-07T12:06:32.364Z,1020.57